NAKED ISLAND AK US NWS current weather conditions

sailwx.info

Wind from 020 at 33 knots gusting 47

Air temperature -6.5° C
Dewpoint -11.6° C

Last reported at 2020-Jan-18 14:32 UTC.
Time now 2020-Jan-18 15:23 UTC

Location: N 58°15' W 134°57'.
View on Google Maps.

See reports from other nearby stations

  
Tides and Currents Weather Stations Pressure Air Temp Water Temp Dewpoint Dewpoint Depression Visibility Wind Speed Wind Dir Waves Ship Positions
date/time (UTC)wind fromknots sea level pressurealtimeterstation pressurevisibilityair tempwater tempwave heightnotes
2020-Jan-18 14:32 020 33 gusting 47 -6.5
2020-Jan-18 14:22 030 32 gusting 52 -6.8
2020-Jan-18 14:12 030 29 gusting 42 -6.7
2020-Jan-18 14:02 030 32 gusting 44 -6.7
2020-Jan-18 13:52 040 28 gusting 42 -6.9
2020-Jan-18 13:42 030 32 gusting 48 -6.9
2020-Jan-18 13:32 030 31 gusting 45 -6.9
2020-Jan-18 13:23 030 34 gusting 46 -7.0
2020-Jan-18 13:13 030 29 gusting 41 -7.1
2020-Jan-18 13:02 030 28 gusting 40 -7.1
2020-Jan-18 12:52 030 31 gusting 41 -7.1
2020-Jan-18 12:42 030 29 gusting 42 -7.3
2020-Jan-18 12:32 030 29 gusting 47 -7.4
2020-Jan-18 12:22 030 28 gusting 41 -7.4
2020-Jan-18 12:12 040 28 gusting 39 -7.5
2020-Jan-18 12:02 030 29 gusting 41 -7.5
2020-Jan-18 11:52 030 29 gusting 41 -7.4
2020-Jan-18 11:42 040 32 gusting 42 -7.5
2020-Jan-18 11:32 030 28 gusting 41 -7.6
2020-Jan-18 11:22 030 27 gusting 41 -7.5
2020-Jan-18 11:12 030 29 gusting 42 -7.4
2020-Jan-18 11:02 030 27 gusting 42 -7.7
2020-Jan-18 10:52 030 31 gusting 42 -7.8
2020-Jan-18 10:42 030 27 gusting 41 -7.9
2020-Jan-18 10:32 030 26 gusting 38 -7.7
2020-Jan-18 10:23 030 27 gusting 40 -7.9
2020-Jan-18 10:12 030 26 gusting 36 -7.8
2020-Jan-18 10:02 030 27 gusting 44 -7.8
2020-Jan-18 09:52 020 28 gusting 42 -7.8
2020-Jan-18 09:42 030 31 gusting 45 -7.8
2020-Jan-18 09:32 030 32 gusting 44 -7.9
2020-Jan-18 09:22 030 31 gusting 44 -8.0
2020-Jan-18 09:12 030 28 gusting 45 -8.1
2020-Jan-18 09:02 030 28 gusting 44 -8.1
2020-Jan-18 08:52 030 27 gusting 41 -8.1
2020-Jan-18 08:42 020 27 gusting 41 -7.9
2020-Jan-18 08:32 030 27 gusting 40 -8.0
2020-Jan-18 08:22 040 26 gusting 38 -8.1
2020-Jan-18 08:12 030 27 gusting 42 -8.2
2020-Jan-18 08:02 030 31 gusting 42 -7.8
2020-Jan-18 07:52 030 29 gusting 47 -8.0
2020-Jan-18 07:42 030 26 gusting 39 -8.0
2020-Jan-18 07:32 030 28 gusting 51 -8.0
2020-Jan-18 07:22 030 27 gusting 39 -7.9
2020-Jan-18 07:13 030 28 gusting 41 -8.1
2020-Jan-18 07:02 040 28 gusting 44 -8.1
2020-Jan-18 06:52 030 28 gusting 42 -7.9
2020-Jan-18 06:42 040 26 gusting 39 -7.9
2020-Jan-18 06:32 030 27 gusting 39 -8.0
2020-Jan-18 06:22 030 26 gusting 40 -8.1
2020-Jan-18 06:12 040 27 gusting 39 -8.0
2020-Jan-18 06:02 030 28 gusting 41 -8.0
2020-Jan-18 05:52 030 27 gusting 40 -7.9
2020-Jan-18 05:42 030 27 gusting 46 -8.2
2020-Jan-18 05:32 040 28 gusting 45 -8.2
2020-Jan-18 05:22 040 27 gusting 39 -8.0
2020-Jan-18 05:12 040 26 gusting 36 -8.1
2020-Jan-18 05:02 040 26 gusting 39 -7.9
2020-Jan-18 04:52 040 24 gusting 35 -8.0
2020-Jan-18 04:42 040 24 gusting 35 -7.9
2020-Jan-18 04:32 040 25 gusting 35 -8.0
2020-Jan-18 04:22 040 27 gusting 39 -8.0
2020-Jan-18 04:12 040 26 gusting 39 -8.0
2020-Jan-18 04:02 040 24 gusting 34 -7.9
2020-Jan-18 03:52 040 25 gusting 36 -8.0
2020-Jan-18 03:42 040 25 gusting 34 -8.0
2020-Jan-18 03:32 040 25 gusting 34 -8.0
2020-Jan-18 03:22 040 25 gusting 36 -7.8
2020-Jan-18 03:12 040 20 gusting 31 -7.8
2020-Jan-18 03:02 040 21 gusting 35 -7.9
2020-Jan-18 02:53 040 20 gusting 34 -7.9
2020-Jan-18 02:43 040 19 gusting 34 -8.0
2020-Jan-18 02:33 050 19 gusting 28 -7.9
2020-Jan-18 02:22 040 20 gusting 29 -7.9
2020-Jan-18 02:12 040 21 gusting 33 -7.9
2020-Jan-18 02:03 040 20 gusting 29 -7.7
2020-Jan-18 01:52 040 21 gusting 32 -7.7
2020-Jan-18 01:42 040 22 gusting 33 -7.9
2020-Jan-18 01:32 040 21 gusting 33 -7.9
2020-Jan-18 01:23 040 20 gusting 33 -7.9
2020-Jan-18 01:13 040 20 gusting 31 -7.9
2020-Jan-18 01:02 040 20 gusting 31 -7.6
2020-Jan-18 00:52 040 22 gusting 44 -7.5
2020-Jan-18 00:42 040 20 gusting 32 -7.5
2020-Jan-18 00:32 050 15 gusting 22 -7.7
2020-Jan-18 00:22 060 14 gusting 20 -7.8
2020-Jan-18 00:12 060 14 gusting 25 -7.9
2020-Jan-17 23:52 060 17 gusting 22 -7.7
2020-Jan-17 23:42 060 15 gusting 21 -7.7
2020-Jan-17 23:33 060 14 gusting 20 -7.8
2020-Jan-17 23:22 060 14 gusting 21 -7.8
2020-Jan-17 23:12 060 15 gusting 24 -7.9
2020-Jan-17 23:02 060 14 gusting 21 -7.9
2020-Jan-17 22:52 060 13 gusting 20 -8.0
2020-Jan-17 22:42 060 13 gusting 21 -8.0
2020-Jan-17 22:32 060 13 gusting 20 -8.0
2020-Jan-17 22:22 060 13 gusting 21 -8.2
2020-Jan-17 22:13 060 14 gusting 25 -8.1
2020-Jan-17 22:02 060 14 gusting 22 -8.2
2020-Jan-17 21:52 060 15 gusting 24 -8.4
2020-Jan-17 21:42 070 13 gusting 22 -8.3
2020-Jan-17 21:33 070 14 gusting 21 -8.4
2020-Jan-17 21:22 060 13 gusting 19 -8.4
2020-Jan-17 21:13 060 13 gusting 19 -8.4
2020-Jan-17 21:02 060 13 gusting 19 -8.4
2020-Jan-17 20:53 060 13 gusting 19 -8.4
2020-Jan-17 20:42 070 13 gusting 19 -8.5
2020-Jan-17 20:32 070 12 gusting 19 -8.4
2020-Jan-17 20:23 070 13 gusting 21 -8.5
2020-Jan-17 20:13 050 13 gusting 21 -8.7
2020-Jan-17 20:03 060 12 gusting 20 -8.6
2020-Jan-17 19:52 060 12 gusting 19 -8.5
2020-Jan-17 19:43 060 12 gusting 19 -8.8
2020-Jan-17 19:33 060 13 gusting 21 -8.9
2020-Jan-17 19:23 060 13 gusting 20 -8.9
2020-Jan-17 19:13 060 12 gusting 20 -8.8
2020-Jan-17 19:02 070 11 gusting 18 -8.9
2020-Jan-17 18:52 070 13 gusting 20 -9.1
2020-Jan-17 18:43 070 12 gusting 20 -9.2
2020-Jan-17 18:33 060 12 gusting 18 -9.0
2020-Jan-17 18:23 080 13 gusting 20 -9.0
2020-Jan-17 18:12 080 13 gusting 19 -9.1
2020-Jan-17 18:02 080 13 gusting 20 -9.0
2020-Jan-17 17:53 090 13 gusting 20 -9.2
2020-Jan-17 17:43 080 13 gusting 20 -9.2
2020-Jan-17 17:32 080 14 gusting 21 -9.2
2020-Jan-17 17:22 080 14 gusting 24 -9.2
2020-Jan-17 17:13 080 14 gusting 20 -9.2
2020-Jan-17 17:03 080 17 gusting 24 -9.3
2020-Jan-17 16:53 080 15 gusting 25 -9.2
2020-Jan-17 16:42 080 18 gusting 27 -9.2
2020-Jan-17 16:33 080 14 gusting 25 -9.2
2020-Jan-17 16:23 080 18 gusting 25 -9.2
2020-Jan-17 16:13 080 18 gusting 27 -9.2
2020-Jan-17 16:02 080 18 gusting 25 -9.2
2020-Jan-17 15:53 080 14 gusting 20 -9.3
2020-Jan-17 15:42 080 13 gusting 21 -9.3
2020-Jan-17 15:32 080 14 gusting 24 -9.3
2020-Jan-17 15:22 080 17 gusting 26 -9.3
2020-Jan-17 15:12 080 15 gusting 24 -9.3
2020-Jan-17 15:03 080 14 gusting 25 -9.1
2020-Jan-17 14:52 080 15 gusting 25 -9.3
2020-Jan-17 14:43 080 15 gusting 24 -9.2
2020-Jan-17 14:33 060 13 gusting 21 -9.4
2020-Jan-17 14:22 070 14 gusting 21 -9.2
2020-Jan-17 14:12 080 15 gusting 25 -9.2
2020-Jan-17 14:02 070 15 gusting 27 -9.2
2020-Jan-17 13:52 080 17 gusting 27 -9.2
2020-Jan-17 13:42 080 20 gusting 27 -9.2
2020-Jan-17 13:33 070 18 gusting 26 -9.3
2020-Jan-17 13:23 070 18 gusting 29 -9.4
2020-Jan-17 13:12 070 17 gusting 27 -9.3
2020-Jan-17 13:02 070 15 gusting 28 -9.2
2020-Jan-17 12:52 070 15 gusting 25 -9.1
2020-Jan-17 12:42 070 17 gusting 25 -8.9
2020-Jan-17 12:32 080 18 gusting 26 -9.0
2020-Jan-17 12:22 080 19 gusting 27 -8.9
2020-Jan-17 12:12 080 20 gusting 29 -9.0
2020-Jan-17 12:02 090 20 gusting 28 -8.9
2020-Jan-17 11:52 090 19 gusting 27 -8.8
2020-Jan-17 11:42 090 20 gusting 29 -8.9
2020-Jan-17 11:32 090 18 gusting 26 -8.8
2020-Jan-17 11:22 080 20 gusting 34 -8.9
2020-Jan-17 11:12 090 20 gusting 27 -9.0
2020-Jan-17 11:02 080 18 gusting 27 -8.9
2020-Jan-17 10:52 080 17 gusting 27 -8.9
2020-Jan-17 10:42 080 19 gusting 27 -8.9
2020-Jan-17 10:32 080 19 gusting 29 -9.0
2020-Jan-17 10:23 080 18 gusting 27 -8.9
2020-Jan-17 10:13 080 20 gusting 32 -8.8
2020-Jan-17 10:02 080 20 gusting 31 -8.9
2020-Jan-17 09:52 090 19 gusting 28 -8.9
2020-Jan-17 09:42 080 20 gusting 32 -8.8
2020-Jan-17 09:32 090 20 gusting 28 -8.9
2020-Jan-17 09:22 080 20 gusting 27 -8.8
2020-Jan-17 09:12 080 17 gusting 26 -8.7
2020-Jan-17 09:02 080 18 gusting 26 -8.9
2020-Jan-17 08:52 080 20 gusting 29 -8.7
2020-Jan-17 08:43 090 19 gusting 27 -8.6
2020-Jan-17 08:32 080 15 gusting 24 -8.7
2020-Jan-17 08:22 090 14 gusting 24 -8.6
2020-Jan-17 08:12 080 19 gusting 29 -8.6
2020-Jan-17 08:02 090 20 gusting 28 -8.4
2020-Jan-17 07:52 080 20 gusting 28 -8.4
2020-Jan-17 07:42 080 20 gusting 28 -8.4
2020-Jan-17 07:32 080 19 gusting 26 -8.3
2020-Jan-17 07:23 080 17 gusting 25 -8.4
2020-Jan-17 07:12 080 15 gusting 24 -8.3
2020-Jan-17 07:02 080 13 gusting 21 -8.2
2020-Jan-17 06:52 080 15 gusting 29 -8.3
2020-Jan-17 06:42 080 13 gusting 22 -8.2
2020-Jan-17 06:32 080 14 gusting 24 -8.1
2020-Jan-17 06:22 080 15 gusting 25 -8.2
2020-Jan-17 06:12 070 15 gusting 26 -8.1
2020-Jan-17 06:02 070 13 gusting 20 -7.9
2020-Jan-17 05:52 060 13 gusting 20 -8.1
2020-Jan-17 05:42 060 13 gusting 20 -8.0
2020-Jan-17 05:32 060 14 gusting 22 -7.9
2020-Jan-17 05:22 060 12 gusting 20 -7.8
2020-Jan-17 05:12 070 13 gusting 20 -7.8
2020-Jan-17 05:02 070 13 gusting 20 -7.7
2020-Jan-17 04:52 070 13 gusting 20 -7.7
2020-Jan-17 04:42 080 13 gusting 22 -7.7
2020-Jan-17 04:32 070 13 gusting 21 -7.6
2020-Jan-17 04:22 080 13 gusting 21 -7.7
2020-Jan-17 04:13 080 12 gusting 20 -7.7
2020-Jan-17 04:02 080 15 gusting 22 -7.7
2020-Jan-17 03:52 080 17 gusting 24 -7.7
2020-Jan-17 03:42 090 18 gusting 25 -7.7
2020-Jan-17 03:32 080 15 gusting 25 -7.6
2020-Jan-17 03:22 080 13 gusting 25 -7.6
2020-Jan-17 03:12 080 15 gusting 22 -7.6
2020-Jan-17 03:02 080 19 gusting 26 -7.6
2020-Jan-17 02:53 080 19 gusting 28 -7.6
2020-Jan-17 02:42 080 13 gusting 21 -7.6
2020-Jan-17 02:33 080 14 gusting 27 -7.4
2020-Jan-17 02:22 080 14 gusting 22 -7.4
2020-Jan-17 02:12 080 13 gusting 20 -7.5
2020-Jan-17 02:02 080 15 gusting 22 -7.3
2020-Jan-17 01:52 080 15 gusting 21 -7.3
2020-Jan-17 01:42 080 15 gusting 21 -7.3
2020-Jan-17 01:33 080 14 gusting 24 -7.3
2020-Jan-17 01:23 080 12 gusting 20 -7.2
2020-Jan-17 01:13 080 13 gusting 20 -7.3
2020-Jan-17 01:02 080 12 gusting 20 -7.2
2020-Jan-17 00:52 090 18 gusting 25 -7.2
2020-Jan-17 00:42 080 17 gusting 22 -7.2
2020-Jan-17 00:32 080 14 gusting 24 -7.2
2020-Jan-17 00:22 080 15 gusting 28 -7.2
2020-Jan-17 00:12 090 15 gusting 26 -7.1
2020-Jan-16 23:52 090 17 gusting 25 -7.2
2020-Jan-16 23:42 080 15 gusting 25 -7.2
2020-Jan-16 23:32 080 13 gusting 22 -7.1
2020-Jan-16 23:22 090 18 gusting 24 -7.2
2020-Jan-16 23:12 080 17 gusting 26 -7.1
2020-Jan-16 23:02 090 13 gusting 22 -7.0
2020-Jan-16 22:52 060 9 gusting 17 -7.0
2020-Jan-16 22:42 080 15 gusting 27 -7.0
2020-Jan-16 22:32 080 15 gusting 24 -7.1
2020-Jan-16 22:23 070 14 gusting 20 -6.9
2020-Jan-16 22:13 080 13 gusting 20 -6.8
2020-Jan-16 22:02 060 12 gusting 19 -7.0
2020-Jan-16 21:52 060 13 gusting 22 -7.0
2020-Jan-16 21:42 060 14 gusting 22 -6.9
2020-Jan-16 21:33 070 17 gusting 27 -6.9
2020-Jan-16 21:22 060 15 gusting 24 -6.9
2020-Jan-16 21:13 060 14 gusting 21 -6.7
2020-Jan-16 21:02 050 13 gusting 21 -7.0
2020-Jan-16 20:53 040 12 gusting 20 -6.9
2020-Jan-16 20:43 050 13 gusting 22 -7.0
2020-Jan-16 20:33 060 13 gusting 24 -6.9
2020-Jan-16 20:23 070 12 gusting 21 -6.9
2020-Jan-16 20:13 050 11 gusting 18 -6.9
2020-Jan-16 20:03 060 13 gusting 26 -6.9
2020-Jan-16 19:52 050 13 gusting 20 -7.1
2020-Jan-16 19:43 050 13 gusting 20 -7.0
2020-Jan-16 19:33 060 17 gusting 25 -6.9
2020-Jan-16 19:23 050 19 gusting 27 -6.8
2020-Jan-16 19:13 050 17 gusting 22 -6.8
2020-Jan-16 19:02 050 18 gusting 28 -6.8
2020-Jan-16 18:53 050 20 gusting 35 -6.8
2020-Jan-16 18:42 050 13 gusting 21 -7.1
2020-Jan-16 18:33 050 15 gusting 27 -7.1
2020-Jan-16 18:22 060 19 gusting 33 -7.1
2020-Jan-16 18:13 050 19 gusting 33 -7.2
2020-Jan-16 18:02 050 18 gusting 27 -7.3
2020-Jan-16 17:53 060 17 gusting 27 -7.2
2020-Jan-16 17:43 060 17 gusting 27 -7.2
2020-Jan-16 17:33 060 14 gusting 26 -7.3
2020-Jan-16 17:23 060 13 gusting 22 -7.4
2020-Jan-16 17:13 050 20 gusting 26 -7.1
2020-Jan-16 17:03 060 20 gusting 27 -7.0
2020-Jan-16 16:53 050 15 gusting 25 -7.2
2020-Jan-16 16:43 050 14 gusting 20 -7.3
2020-Jan-16 16:33 060 14 gusting 21 -7.1
2020-Jan-16 16:23 050 17 gusting 29 -6.8
2020-Jan-16 16:13 050 15 gusting 25 -6.9
2020-Jan-16 16:03 050 15 gusting 26 -7.0
2020-Jan-16 15:53 050 19 gusting 27 -6.6
2020-Jan-16 15:43 050 17 gusting 24 -6.8
2020-Jan-16 15:32 040 20 gusting 32 -6.7
2020-Jan-16 15:22 040 18 gusting 27 -6.6
2020-Jan-16 15:13 060 9 gusting 15 -7.2
2020-Jan-16 15:02 080 7 gusting 13 -7.2